Fairchild Air Force Base
KSKA : now visible

Airfield :











YOU CAN JOIN US ON...

 
LOGIN :

Register | Disclaimer

   EN    FR    IT 

 









Legend :    VFR   Marginal VFR   IFR   Intensive IFR   Very Intensive IFR
Visi :
Ceiling :
>= 8 km
>= 3000ft
5 to 8 km
1000 to 3000 ft
1500m to 5 km
500 to 1000 ft
800 to 1500m
200 to 500 ft
< 800m
< 200 ft
Symbols :   Thunderstorms  Fog  Heavy snow  Heavy precipitations  Wind > 20 kt






- Airport Elevation : 2461 ft


KSKA - Fairchild Air Force Base

CURRENT METAR :
  • 230855Z 27009KT 10SM CLR 06/03 A2995 RMK AO2A SLP145 T00590032 52006 $

EXPIRED METARs :
  • 230755Z 27010KT 10SM OVC050 08/04 A2994 RMK AO2A SLP140 T00760035 401340065 $
  • 230655Z 27009KT 10SM OVC050 08/03 A2993 RMK AO2A SLP138 T00790032 $
  • 230555Z 27007KT 10SM OVC050 08/03 A2993 RMK AO2A SLP140 T00830029 10134 20083 52011 $
  • 230455Z 26008KT 10SM BKN060 OVC110 09/02 A2992 RMK AO2A SLP137 T00860015 $

TAF AMD TAF KSKA
Valid from the 23 at 03:00 until the 24 at 09:00 UTC


230301Z 2303/2409 21012KT 9999 BKN065 BKN120 620656 QNH2987INS
TEMPO 2303/2304 9000 -SHRA BKN060 610606
BECMG 2307/2309 24006KT 9999 NSW SCT060 QNH2993INS
BECMG 2319/2320 22012KT 9999 BKN040 620402 QNH2998INS WND VRB06KT AFT 2406 TX17/2323Z TN05/2312Z
KZSE FIR / North America



MET'MAP, your aeronautical weather chart ! - Copyright ORBIFLY December 2007 - Disclaimer

ORBIFLY MET'MAP TEAM :

Programming & Development : Alexandra Zaïnal
Original concept : Baudouin d'Aumeries
Technical & hardware support : Manuel Goepfert
Assistance : Marc-Olivier Méhu




SOURCES & CREDITS :

   NOAA       Earth
Advisory